<?xml version='1.0' encoding='UTF-8'?>
<gpx xmlns="http://www.topografix.com/GPX/1/1" creator="www.balnam.be" version="1.1" xmlns:xsi="http://www.w3.org/2001/XMLSchema-instance" xsi:schemaLocation="http://www.topografix.com/GPX/1/1 http://www.topografix.com/GPX/1/1/gpx.xsd">
<trk>
<name>hmtmt66</name>
<cmt>q</cmt>
<desc>Montigny-le-Tilleul Sentier n°66 Sentier de la Maison Chevelot au Bois du Prince</desc>
<link href="https://chemins.be/montignyletilleul/sentier/66"/><trkseg>
<trkpt lat="50.366386" lon="4.361197"><time>2026-05-02T22:22:02Z</time></trkpt>
<trkpt lat="50.367501" lon="4.363137"><time>2026-05-02T22:32:02Z</time></trkpt>
<trkpt lat="50.368121" lon="4.363713"><time>2026-05-02T22:42:02Z</time></trkpt>
<trkpt lat="50.368301" lon="4.364247"><time>2026-05-02T22:52:02Z</time></trkpt>
</trkseg></trk>
<trk>
<name>hmtmt66</name>
<cmt>s</cmt>
<desc>Montigny-le-Tilleul Sentier n°66 Sentier de la Maison Chevelot au Bois du Prince</desc>
<link href="https://chemins.be/montignyletilleul/sentier/66"/><trkseg>
<trkpt lat="50.368301" lon="4.364247"><time>2026-05-02T22:52:02Z</time></trkpt>
<trkpt lat="50.369794" lon="4.366032"><time>2026-05-02T23:02:02Z</time></trkpt>
<trkpt lat="50.370063" lon="4.366749"><time>2026-05-02T23:12:02Z</time></trkpt>
<trkpt lat="50.369955" lon="4.367016"><time>2026-05-02T23:22:02Z</time></trkpt>
</trkseg></trk>
<trk>
<name>hmtmt66</name>
<cmt>r</cmt>
<desc>Montigny-le-Tilleul Sentier n°66 Sentier de la Maison Chevelot au Bois du Prince</desc>
<link href="https://chemins.be/montignyletilleul/sentier/66"/><trkseg>
<trkpt lat="50.369955" lon="4.367016"><time>2026-05-02T23:22:02Z</time></trkpt>
<trkpt lat="50.370243" lon="4.367635"><time>2026-05-02T23:32:02Z</time></trkpt>
<trkpt lat="50.370765" lon="4.368843"><time>2026-05-02T23:42:02Z</time></trkpt>
</trkseg></trk>
<trk>
<name>hmtmt66</name>
<cmt>v</cmt>
<desc>Montigny-le-Tilleul Sentier n°66 Sentier de la Maison Chevelot au Bois du Prince</desc>
<link href="https://chemins.be/montignyletilleul/sentier/66"/><trkseg>
<trkpt lat="50.370765" lon="4.368843"><time>2026-05-02T23:42:02Z</time></trkpt>
<trkpt lat="50.370926" lon="4.369096"><time>2026-05-02T23:52:02Z</time></trkpt>
<trkpt lat="50.371376" lon="4.369600"><time>2026-05-03T00:02:02Z</time></trkpt>
<trkpt lat="50.371313" lon="4.369954"><time>2026-05-03T00:12:02Z</time></trkpt>
<trkpt lat="50.371960" lon="4.370474"><time>2026-05-03T00:22:02Z</time></trkpt>
<trkpt lat="50.372086" lon="4.370376"><time>2026-05-03T00:32:02Z</time></trkpt>
<trkpt lat="50.372733" lon="4.371121"><time>2026-05-03T00:42:02Z</time></trkpt>
</trkseg></trk>
<trk>
<name>hmtmt66</name>
<cmt>q</cmt>
<desc>Montigny-le-Tilleul Sentier n°66 Sentier de la Maison Chevelot au Bois du Prince</desc>
<link href="https://chemins.be/montignyletilleul/sentier/66"/><trkseg>
<trkpt lat="50.372733" lon="4.371121"><time>2026-05-03T00:42:02Z</time></trkpt>
<trkpt lat="50.373012" lon="4.371374"><time>2026-05-03T00:52:02Z</time></trkpt>
<trkpt lat="50.373704" lon="4.372021"><time>2026-05-03T01:02:02Z</time></trkpt>
<trkpt lat="50.374289" lon="4.372358"><time>2026-05-03T01:12:02Z</time></trkpt>
</trkseg></trk>
<trk>
<name>hmtmt66</name>
<cmt>v</cmt>
<desc>Montigny-le-Tilleul Sentier n°66 Sentier de la Maison Chevelot au Bois du Prince</desc>
<link href="https://chemins.be/montignyletilleul/sentier/66"/><trkseg>
<trkpt lat="50.374289" lon="4.372358"><time>2026-05-03T01:12:02Z</time></trkpt>
<trkpt lat="50.374442" lon="4.372091"><time>2026-05-03T01:22:02Z</time></trkpt>
<trkpt lat="50.374693" lon="4.372133"><time>2026-05-03T01:32:02Z</time></trkpt>
</trkseg>
</trk>
</gpx>